sensor_id;sensor_type;location;lat;lon;timestamp;temperature;humidity
73360;DHT22;63092;43.582;19.528;2023-04-23T00:01:36;10.60;97.00
73360;DHT22;63092;43.582;19.528;2023-04-23T00:04:06;10.50;97.20
73360;DHT22;63092;43.582;19.528;2023-04-23T00:06:33;10.50;97.40
73360;DHT22;63092;43.582;19.528;2023-04-23T00:09:00;10.50;97.30
73360;DHT22;63092;43.582;19.528;2023-04-23T00:11:26;10.50;97.50
73360;DHT22;63092;43.582;19.528;2023-04-23T00:13:52;10.40;97.30
73360;DHT22;63092;43.582;19.528;2023-04-23T00:16:19;10.40;97.50
73360;DHT22;63092;43.582;19.528;2023-04-23T00:18:45;10.30;97.50
73360;DHT22;63092;43.582;19.528;2023-04-23T00:21:11;10.30;97.80
73360;DHT22;63092;43.582;19.528;2023-04-23T00:23:38;10.40;97.90
73360;DHT22;63092;43.582;19.528;2023-04-23T00:26:04;10.40;97.80
73360;DHT22;63092;43.582;19.528;2023-04-23T00:28:30;10.30;98.00
73360;DHT22;63092;43.582;19.528;2023-04-23T00:30:56;10.30;98.20
73360;DHT22;63092;43.582;19.528;2023-04-23T00:33:21;10.30;98.20
73360;DHT22;63092;43.582;19.528;2023-04-23T00:35:47;10.40;98.30
73360;DHT22;63092;43.582;19.528;2023-04-23T00:38:13;10.40;98.20
73360;DHT22;63092;43.582;19.528;2023-04-23T00:40:39;10.30;98.30
73360;DHT22;63092;43.582;19.528;2023-04-23T00:43:05;10.40;98.10
73360;DHT22;63092;43.582;19.528;2023-04-23T00:45:32;10.30;97.90
73360;DHT22;63092;43.582;19.528;2023-04-23T00:47:58;10.40;97.50
73360;DHT22;63092;43.582;19.528;2023-04-23T00:50:24;10.40;97.30
73360;DHT22;63092;43.582;19.528;2023-04-23T00:52:49;10.40;97.00
73360;DHT22;63092;43.582;19.528;2023-04-23T00:55:15;10.40;97.20
73360;DHT22;63092;43.582;19.528;2023-04-23T00:57:41;10.30;97.50
73360;DHT22;63092;43.582;19.528;2023-04-23T01:00:07;10.30;97.70
73360;DHT22;63092;43.582;19.528;2023-04-23T01:02:34;10.20;97.90
73360;DHT22;63092;43.582;19.528;2023-04-23T01:05:03;10.20;99.20
73360;DHT22;63092;43.582;19.528;2023-04-23T01:07:32;10.20;99.90
73360;DHT22;63092;43.582;19.528;2023-04-23T01:09:58;10.10;99.90
73360;DHT22;63092;43.582;19.528;2023-04-23T01:12:25;9.90;98.70
73360;DHT22;63092;43.582;19.528;2023-04-23T01:14:51;9.80;98.70
73360;DHT22;63092;43.582;19.528;2023-04-23T01:17:17;10.00;99.90
73360;DHT22;63092;43.582;19.528;2023-04-23T01:19:43;9.90;99.90
73360;DHT22;63092;43.582;19.528;2023-04-23T01:22:13;9.80;99.10
73360;DHT22;63092;43.582;19.528;2023-04-23T01:24:40;9.80;98.80
73360;DHT22;63092;43.582;19.528;2023-04-23T01:27:07;9.80;98.70
73360;DHT22;63092;43.582;19.528;2023-04-23T01:29:34;9.80;98.70
73360;DHT22;63092;43.582;19.528;2023-04-23T01:32:01;9.70;99.00
73360;DHT22;63092;43.582;19.528;2023-04-23T01:34:29;9.70;99.00
73360;DHT22;63092;43.582;19.528;2023-04-23T01:36:57;9.70;99.00
73360;DHT22;63092;43.582;19.528;2023-04-23T01:39:23;9.70;98.70
73360;DHT22;63092;43.582;19.528;2023-04-23T01:41:49;9.70;98.50
73360;DHT22;63092;43.582;19.528;2023-04-23T01:44:15;9.70;98.40
73360;DHT22;63092;43.582;19.528;2023-04-23T01:46:41;9.70;98.60
73360;DHT22;63092;43.582;19.528;2023-04-23T01:49:07;9.60;99.10
73360;DHT22;63092;43.582;19.528;2023-04-23T01:51:34;9.60;99.20
73360;DHT22;63092;43.582;19.528;2023-04-23T01:54:00;9.60;99.20
73360;DHT22;63092;43.582;19.528;2023-04-23T01:56:27;9.50;99.10
73360;DHT22;63092;43.582;19.528;2023-04-23T01:58:53;9.50;99.00
73360;DHT22;63092;43.582;19.528;2023-04-23T02:01:19;9.50;99.10
73360;DHT22;63092;43.582;19.528;2023-04-23T02:03:45;9.50;99.20
73360;DHT22;63092;43.582;19.528;2023-04-23T02:06:11;9.50;99.30
73360;DHT22;63092;43.582;19.528;2023-04-23T02:08:38;9.40;99.20
73360;DHT22;63092;43.582;19.528;2023-04-23T02:11:04;9.50;99.90
73360;DHT22;63092;43.582;19.528;2023-04-23T02:15:58;10.00;99.90
73360;DHT22;63092;43.582;19.528;2023-04-23T02:18:24;9.50;99.90
73360;DHT22;63092;43.582;19.528;2023-04-23T02:20:49;9.40;99.90
73360;DHT22;63092;43.582;19.528;2023-04-23T02:23:15;9.40;99.90
73360;DHT22;63092;43.582;19.528;2023-04-23T02:25:41;9.30;99.90
73360;DHT22;63092;43.582;19.528;2023-04-23T02:28:08;9.20;99.90
73360;DHT22;63092;43.582;19.528;2023-04-23T02:30:37;9.10;99.90
73360;DHT22;63092;43.582;19.528;2023-04-23T02:33:09;9.10;99.90
73360;DHT22;63092;43.582;19.528;2023-04-23T02:35:35;9.10;99.90
73360;DHT22;63092;43.582;19.528;2023-04-23T02:38:01;9.10;99.90
73360;DHT22;63092;43.582;19.528;2023-04-23T02:40:26;9.10;99.90
73360;DHT22;63092;43.582;19.528;2023-04-23T02:42:52;9.10;99.90
73360;DHT22;63092;43.582;19.528;2023-04-23T02:45:18;9.00;99.90
73360;DHT22;63092;43.582;19.528;2023-04-23T02:47:44;9.00;99.80
73360;DHT22;63092;43.582;19.528;2023-04-23T02:50:10;9.00;99.70
73360;DHT22;63092;43.582;19.528;2023-04-23T02:52:35;9.00;99.80
73360;DHT22;63092;43.582;19.528;2023-04-23T02:55:01;9.00;99.60
73360;DHT22;63092;43.582;19.528;2023-04-23T02:57:28;9.00;99.60
73360;DHT22;63092;43.582;19.528;2023-04-23T02:59:54;8.90;99.70
73360;DHT22;63092;43.582;19.528;2023-04-23T03:02:19;8.90;99.70
73360;DHT22;63092;43.582;19.528;2023-04-23T03:04:45;9.00;99.90
73360;DHT22;63092;43.582;19.528;2023-04-23T03:07:11;8.90;99.90
73360;DHT22;63092;43.582;19.528;2023-04-23T03:09:38;8.80;99.90
73360;DHT22;63092;43.582;19.528;2023-04-23T03:12:04;8.80;99.90
73360;DHT22;63092;43.582;19.528;2023-04-23T03:14:30;8.70;99.90
73360;DHT22;63092;43.582;19.528;2023-04-23T03:16:55;8.60;99.90
73360;DHT22;63092;43.582;19.528;2023-04-23T03:19:21;8.30;99.90
73360;DHT22;63092;43.582;19.528;2023-04-23T03:21:47;8.40;99.90
73360;DHT22;63092;43.582;19.528;2023-04-23T03:24:13;8.40;99.90
73360;DHT22;63092;43.582;19.528;2023-04-23T03:26:39;8.40;99.90
73360;DHT22;63092;43.582;19.528;2023-04-23T03:29:06;8.40;99.90
73360;DHT22;63092;43.582;19.528;2023-04-23T03:31:32;8.40;99.90
73360;DHT22;63092;43.582;19.528;2023-04-23T03:33:57;8.40;99.90
73360;DHT22;63092;43.582;19.528;2023-04-23T03:36:23;8.50;99.90
73360;DHT22;63092;43.582;19.528;2023-04-23T03:38:49;8.30;99.90
73360;DHT22;63092;43.582;19.528;2023-04-23T03:41:14;8.30;99.90
73360;DHT22;63092;43.582;19.528;2023-04-23T03:43:40;8.30;99.90
73360;DHT22;63092;43.582;19.528;2023-04-23T03:46:06;8.30;99.90
73360;DHT22;63092;43.582;19.528;2023-04-23T03:48:32;8.40;99.90
73360;DHT22;63092;43.582;19.528;2023-04-23T03:50:57;8.40;99.90
73360;DHT22;63092;43.582;19.528;2023-04-23T03:53:23;8.40;99.90
73360;DHT22;63092;43.582;19.528;2023-04-23T03:55:49;8.40;99.90
73360;DHT22;63092;43.582;19.528;2023-04-23T03:58:15;8.40;99.90
73360;DHT22;63092;43.582;19.528;2023-04-23T04:00:41;8.30;99.90
73360;DHT22;63092;43.582;19.528;2023-04-23T04:03:07;8.20;99.90
73360;DHT22;63092;43.582;19.528;2023-04-23T04:05:34;8.10;99.90
73360;DHT22;63092;43.582;19.528;2023-04-23T04:08:00;8.10;99.90
73360;DHT22;63092;43.582;19.528;2023-04-23T04:10:26;8.10;99.90
73360;DHT22;63092;43.582;19.528;2023-04-23T04:12:52;8.10;99.90
73360;DHT22;63092;43.582;19.528;2023-04-23T04:15:19;8.00;99.90
73360;DHT22;63092;43.582;19.528;2023-04-23T04:17:46;8.10;99.90
73360;DHT22;63092;43.582;19.528;2023-04-23T04:20:12;8.00;99.90
73360;DHT22;63092;43.582;19.528;2023-04-23T04:22:38;8.00;99.90
73360;DHT22;63092;43.582;19.528;2023-04-23T04:25:04;8.00;99.90
73360;DHT22;63092;43.582;19.528;2023-04-23T04:27:31;8.00;99.90
73360;DHT22;63092;43.582;19.528;2023-04-23T04:29:59;8.00;99.90
73360;DHT22;63092;43.582;19.528;2023-04-23T04:32:26;8.00;99.90
73360;DHT22;63092;43.582;19.528;2023-04-23T04:34:52;8.00;99.90
73360;DHT22;63092;43.582;19.528;2023-04-23T04:37:18;8.00;99.90
73360;DHT22;63092;43.582;19.528;2023-04-23T04:39:45;8.20;99.90
73360;DHT22;63092;43.582;19.528;2023-04-23T04:42:11;8.20;99.90
73360;DHT22;63092;43.582;19.528;2023-04-23T04:44:37;8.30;99.90
73360;DHT22;63092;43.582;19.528;2023-04-23T04:47:03;8.30;99.90
73360;DHT22;63092;43.582;19.528;2023-04-23T04:49:30;8.30;99.90
73360;DHT22;63092;43.582;19.528;2023-04-23T04:51:55;8.30;99.90
73360;DHT22;63092;43.582;19.528;2023-04-23T04:54:21;8.20;99.90
73360;DHT22;63092;43.582;19.528;2023-04-23T04:56:47;8.20;99.90
73360;DHT22;63092;43.582;19.528;2023-04-23T04:59:13;8.10;99.90
73360;DHT22;63092;43.582;19.528;2023-04-23T05:01:38;8.10;99.90
73360;DHT22;63092;43.582;19.528;2023-04-23T05:04:04;8.10;99.90
73360;DHT22;63092;43.582;19.528;2023-04-23T05:06:30;8.20;99.90
73360;DHT22;63092;43.582;19.528;2023-04-23T05:08:56;8.10;99.90
73360;DHT22;63092;43.582;19.528;2023-04-23T05:11:22;8.10;99.90
73360;DHT22;63092;43.582;19.528;2023-04-23T05:13:48;8.00;99.90
73360;DHT22;63092;43.582;19.528;2023-04-23T05:16:14;7.90;99.90
73360;DHT22;63092;43.582;19.528;2023-04-23T05:18:40;7.90;99.90
73360;DHT22;63092;43.582;19.528;2023-04-23T05:21:07;7.90;99.90
73360;DHT22;63092;43.582;19.528;2023-04-23T05:23:33;8.10;99.90
73360;DHT22;63092;43.582;19.528;2023-04-23T05:25:59;8.10;99.90
73360;DHT22;63092;43.582;19.528;2023-04-23T05:28:31;8.20;99.90
73360;DHT22;63092;43.582;19.528;2023-04-23T05:30:57;8.30;99.90
73360;DHT22;63092;43.582;19.528;2023-04-23T05:33:23;8.30;99.90
73360;DHT22;63092;43.582;19.528;2023-04-23T05:35:50;8.50;99.90
73360;DHT22;63092;43.582;19.528;2023-04-23T05:38:16;8.60;99.90
73360;DHT22;63092;43.582;19.528;2023-04-23T05:40:42;8.50;99.90
73360;DHT22;63092;43.582;19.528;2023-04-23T05:43:07;8.40;99.90
73360;DHT22;63092;43.582;19.528;2023-04-23T05:45:33;8.60;99.90
73360;DHT22;63092;43.582;19.528;2023-04-23T05:47:59;8.60;99.90
73360;DHT22;63092;43.582;19.528;2023-04-23T05:50:25;8.60;99.90
73360;DHT22;63092;43.582;19.528;2023-04-23T05:52:50;8.70;99.90
73360;DHT22;63092;43.582;19.528;2023-04-23T05:55:16;8.70;99.90
73360;DHT22;63092;43.582;19.528;2023-04-23T05:57:43;8.80;99.90
73360;DHT22;63092;43.582;19.528;2023-04-23T06:00:09;8.90;99.90
73360;DHT22;63092;43.582;19.528;2023-04-23T06:02:36;9.20;99.90
73360;DHT22;63092;43.582;19.528;2023-04-23T06:05:02;9.30;99.90
73360;DHT22;63092;43.582;19.528;2023-04-23T06:07:28;9.50;99.90
73360;DHT22;63092;43.582;19.528;2023-04-23T06:09:54;9.60;99.90
73360;DHT22;63092;43.582;19.528;2023-04-23T06:12:20;9.70;99.90
73360;DHT22;63092;43.582;19.528;2023-04-23T06:14:45;10.10;99.90
73360;DHT22;63092;43.582;19.528;2023-04-23T06:17:12;10.20;99.90
73360;DHT22;63092;43.582;19.528;2023-04-23T06:19:37;10.20;98.80
73360;DHT22;63092;43.582;19.528;2023-04-23T06:22:03;10.30;97.90
73360;DHT22;63092;43.582;19.528;2023-04-23T06:24:29;10.40;97.30
73360;DHT22;63092;43.582;19.528;2023-04-23T06:26:55;10.60;99.90
73360;DHT22;63092;43.582;19.528;2023-04-23T06:29:20;10.80;99.90
73360;DHT22;63092;43.582;19.528;2023-04-23T06:31:46;11.00;99.90
73360;DHT22;63092;43.582;19.528;2023-04-23T06:34:12;11.20;99.90
73360;DHT22;63092;43.582;19.528;2023-04-23T06:36:37;11.40;99.90
73360;DHT22;63092;43.582;19.528;2023-04-23T06:39:03;11.50;99.90
73360;DHT22;63092;43.582;19.528;2023-04-23T06:41:29;11.60;99.40
73360;DHT22;63092;43.582;19.528;2023-04-23T06:43:55;11.80;99.80
73360;DHT22;63092;43.582;19.528;2023-04-23T06:46:21;11.80;99.90
73360;DHT22;63092;43.582;19.528;2023-04-23T06:48:46;11.70;99.90
73360;DHT22;63092;43.582;19.528;2023-04-23T06:51:13;11.70;99.80
73360;DHT22;63092;43.582;19.528;2023-04-23T06:53:38;11.80;99.80
73360;DHT22;63092;43.582;19.528;2023-04-23T06:56:04;11.70;99.30
73360;DHT22;63092;43.582;19.528;2023-04-23T06:58:30;11.70;99.40
73360;DHT22;63092;43.582;19.528;2023-04-23T07:01:00;11.70;99.50
73360;DHT22;63092;43.582;19.528;2023-04-23T07:03:28;11.70;99.60
73360;DHT22;63092;43.582;19.528;2023-04-23T07:05:55;11.80;99.10
73360;DHT22;63092;43.582;19.528;2023-04-23T07:08:21;11.70;98.70
73360;DHT22;63092;43.582;19.528;2023-04-23T07:10:47;11.60;99.30
73360;DHT22;63092;43.582;19.528;2023-04-23T07:13:13;11.80;99.10
73360;DHT22;63092;43.582;19.528;2023-04-23T07:15:38;11.90;99.10
73360;DHT22;63092;43.582;19.528;2023-04-23T07:18:06;11.90;98.30
73360;DHT22;63092;43.582;19.528;2023-04-23T07:20:31;11.90;97.50
73360;DHT22;63092;43.582;19.528;2023-04-23T07:22:58;11.90;97.20
73360;DHT22;63092;43.582;19.528;2023-04-23T07:25:24;12.10;97.40
73360;DHT22;63092;43.582;19.528;2023-04-23T07:27:54;12.20;97.40
73360;DHT22;63092;43.582;19.528;2023-04-23T07:30:21;12.20;98.70
73360;DHT22;63092;43.582;19.528;2023-04-23T07:32:47;12.30;97.50
73360;DHT22;63092;43.582;19.528;2023-04-23T07:35:13;12.60;98.80
73360;DHT22;63092;43.582;19.528;2023-04-23T07:37:39;12.90;96.10
73360;DHT22;63092;43.582;19.528;2023-04-23T07:40:06;13.00;92.90
73360;DHT22;63092;43.582;19.528;2023-04-23T07:42:33;13.20;92.00
73360;DHT22;63092;43.582;19.528;2023-04-23T07:44:59;13.30;90.50
73360;DHT22;63092;43.582;19.528;2023-04-23T07:47:24;13.30;88.30
73360;DHT22;63092;43.582;19.528;2023-04-23T07:49:50;13.40;86.80
73360;DHT22;63092;43.582;19.528;2023-04-23T07:52:16;13.60;86.30
73360;DHT22;63092;43.582;19.528;2023-04-23T07:54:42;13.80;85.40
73360;DHT22;63092;43.582;19.528;2023-04-23T07:57:08;13.90;83.80
73360;DHT22;63092;43.582;19.528;2023-04-23T07:59:34;13.90;81.70
73360;DHT22;63092;43.582;19.528;2023-04-23T08:02:00;14.00;83.60
73360;DHT22;63092;43.582;19.528;2023-04-23T08:04:26;14.30;83.30
73360;DHT22;63092;43.582;19.528;2023-04-23T08:06:52;14.40;80.80
73360;DHT22;63092;43.582;19.528;2023-04-23T08:09:18;14.50;80.70
73360;DHT22;63092;43.582;19.528;2023-04-23T08:11:43;14.60;86.10
73360;DHT22;63092;43.582;19.528;2023-04-23T08:14:09;14.70;81.30
73360;DHT22;63092;43.582;19.528;2023-04-23T08:16:35;14.90;81.40
73360;DHT22;63092;43.582;19.528;2023-04-23T08:19:01;15.00;79.50
73360;DHT22;63092;43.582;19.528;2023-04-23T08:21:31;15.20;80.20
73360;DHT22;63092;43.582;19.528;2023-04-23T08:23:57;15.30;85.30
73360;DHT22;63092;43.582;19.528;2023-04-23T08:26:23;15.40;80.50
73360;DHT22;63092;43.582;19.528;2023-04-23T08:28:49;15.50;75.50
73360;DHT22;63092;43.582;19.528;2023-04-23T08:31:15;15.70;79.50
73360;DHT22;63092;43.582;19.528;2023-04-23T08:33:41;15.60;74.50
73360;DHT22;63092;43.582;19.528;2023-04-23T08:36:07;15.80;75.30
73360;DHT22;63092;43.582;19.528;2023-04-23T08:38:33;15.90;77.80
73360;DHT22;63092;43.582;19.528;2023-04-23T08:41:00;16.10;77.00
73360;DHT22;63092;43.582;19.528;2023-04-23T08:43:30;16.20;81.20
73360;DHT22;63092;43.582;19.528;2023-04-23T08:46:02;16.30;77.70
73360;DHT22;63092;43.582;19.528;2023-04-23T08:48:33;16.40;72.20
73360;DHT22;63092;43.582;19.528;2023-04-23T08:51:01;16.60;72.30
73360;DHT22;63092;43.582;19.528;2023-04-23T08:53:27;16.60;71.20
73360;DHT22;63092;43.582;19.528;2023-04-23T08:55:54;16.70;68.70
73360;DHT22;63092;43.582;19.528;2023-04-23T08:58:21;16.80;69.30
73360;DHT22;63092;43.582;19.528;2023-04-23T09:00:48;17.00;70.00
73360;DHT22;63092;43.582;19.528;2023-04-23T09:03:18;17.20;69.80
73360;DHT22;63092;43.582;19.528;2023-04-23T09:05:45;17.40;71.30
73360;DHT22;63092;43.582;19.528;2023-04-23T09:08:11;17.30;66.40
73360;DHT22;63092;43.582;19.528;2023-04-23T09:10:39;17.60;66.10
73360;DHT22;63092;43.582;19.528;2023-04-23T09:13:06;17.70;67.60
73360;DHT22;63092;43.582;19.528;2023-04-23T09:15:32;17.80;64.80
73360;DHT22;63092;43.582;19.528;2023-04-23T09:18:01;17.90;65.30
73360;DHT22;63092;43.582;19.528;2023-04-23T09:20:27;18.00;64.60
73360;DHT22;63092;43.582;19.528;2023-04-23T09:22:52;18.20;63.40
73360;DHT22;63092;43.582;19.528;2023-04-23T09:25:20;18.30;62.50
73360;DHT22;63092;43.582;19.528;2023-04-23T09:27:47;18.40;63.40
73360;DHT22;63092;43.582;19.528;2023-04-23T09:30:14;18.60;62.60
73360;DHT22;63092;43.582;19.528;2023-04-23T09:32:41;18.70;62.20
73360;DHT22;63092;43.582;19.528;2023-04-23T09:35:09;18.90;61.20
73360;DHT22;63092;43.582;19.528;2023-04-23T09:37:35;19.10;62.40
73360;DHT22;63092;43.582;19.528;2023-04-23T09:40:04;19.30;60.10
73360;DHT22;63092;43.582;19.528;2023-04-23T09:42:35;19.30;58.80
73360;DHT22;63092;43.582;19.528;2023-04-23T09:45:10;19.30;58.00
73360;DHT22;63092;43.582;19.528;2023-04-23T09:47:46;19.40;58.00
73360;DHT22;63092;43.582;19.528;2023-04-23T09:50:12;19.40;59.10
73360;DHT22;63092;43.582;19.528;2023-04-23T09:52:39;19.60;58.10
73360;DHT22;63092;43.582;19.528;2023-04-23T09:55:06;19.80;59.40
73360;DHT22;63092;43.582;19.528;2023-04-23T09:57:43;19.80;62.60
73360;DHT22;63092;43.582;19.528;2023-04-23T10:00:13;20.10;63.30
73360;DHT22;63092;43.582;19.528;2023-04-23T10:02:48;20.00;57.20
73360;DHT22;63092;43.582;19.528;2023-04-23T10:05:23;20.20;58.10
73360;DHT22;63092;43.582;19.528;2023-04-23T10:07:49;20.30;67.30
73360;DHT22;63092;43.582;19.528;2023-04-23T10:10:16;20.10;68.70
73360;DHT22;63092;43.582;19.528;2023-04-23T10:12:45;20.10;68.70
73360;DHT22;63092;43.582;19.528;2023-04-23T10:15:12;20.30;68.50
73360;DHT22;63092;43.582;19.528;2023-04-23T10:17:39;20.20;69.30
73360;DHT22;63092;43.582;19.528;2023-04-23T10:20:06;20.10;67.90
73360;DHT22;63092;43.582;19.528;2023-04-23T10:22:34;19.80;67.80
73360;DHT22;63092;43.582;19.528;2023-04-23T10:25:04;20.00;68.40
73360;DHT22;63092;43.582;19.528;2023-04-23T10:27:39;20.30;69.40
73360;DHT22;63092;43.582;19.528;2023-04-23T10:30:07;17.80;52.50
73360;DHT22;63092;43.582;19.528;2023-04-23T10:32:33;20.60;54.30
73360;DHT22;63092;43.582;19.528;2023-04-23T10:34:59;20.50;51.80
73360;DHT22;63092;43.582;19.528;2023-04-23T10:37:25;20.40;52.10
73360;DHT22;63092;43.582;19.528;2023-04-23T10:40:10;20.40;51.50
73360;DHT22;63092;43.582;19.528;2023-04-23T10:42:42;20.50;52.60
73360;DHT22;63092;43.582;19.528;2023-04-23T10:47:38;20.20;50.40
73360;DHT22;63092;43.582;19.528;2023-04-23T10:50:26;20.10;49.20
73360;DHT22;63092;43.582;19.528;2023-04-23T10:52:53;20.10;49.80
73360;DHT22;63092;43.582;19.528;2023-04-23T10:55:23;20.10;50.20
73360;DHT22;63092;43.582;19.528;2023-04-23T10:57:56;20.50;49.80
73360;DHT22;63092;43.582;19.528;2023-04-23T11:00:23;20.80;47.80
73360;DHT22;63092;43.582;19.528;2023-04-23T11:05:17;21.30;44.90
73360;DHT22;63092;43.582;19.528;2023-04-23T11:08:01;21.40;45.90
73360;DHT22;63092;43.582;19.528;2023-04-23T11:10:28;21.60;46.90
73360;DHT22;63092;43.582;19.528;2023-04-23T11:12:55;21.70;45.70
73360;DHT22;63092;43.582;19.528;2023-04-23T11:15:21;21.80;46.90
73360;DHT22;63092;43.582;19.528;2023-04-23T11:20:21;21.40;46.20
73360;DHT22;63092;43.582;19.528;2023-04-23T11:22:51;21.20;46.40
73360;DHT22;63092;43.582;19.528;2023-04-23T11:25:25;21.10;46.70
73360;DHT22;63092;43.582;19.528;2023-04-23T11:27:54;21.10;46.80
73360;DHT22;63092;43.582;19.528;2023-04-23T11:30:22;21.00;47.70
73360;DHT22;63092;43.582;19.528;2023-04-23T11:32:50;21.10;45.70
73360;DHT22;63092;43.582;19.528;2023-04-23T11:35:21;21.10;45.90
73360;DHT22;63092;43.582;19.528;2023-04-23T11:37:48;21.20;44.30
73360;DHT22;63092;43.582;19.528;2023-04-23T11:40:16;21.10;46.20
73360;DHT22;63092;43.582;19.528;2023-04-23T11:42:49;21.00;45.10
73360;DHT22;63092;43.582;19.528;2023-04-23T11:45:16;21.00;47.00
73360;DHT22;63092;43.582;19.528;2023-04-23T11:47:43;20.90;47.60
73360;DHT22;63092;43.582;19.528;2023-04-23T11:50:15;20.90;46.40
73360;DHT22;63092;43.582;19.528;2023-04-23T11:52:43;20.80;47.50
73360;DHT22;63092;43.582;19.528;2023-04-23T11:55:08;20.90;48.40
73360;DHT22;63092;43.582;19.528;2023-04-23T11:57:45;21.30;47.40
73360;DHT22;63092;43.582;19.528;2023-04-23T12:00:18;21.60;47.20
73360;DHT22;63092;43.582;19.528;2023-04-23T12:03:01;21.90;45.40
73360;DHT22;63092;43.582;19.528;2023-04-23T12:05:28;21.70;46.90
73360;DHT22;63092;43.582;19.528;2023-04-23T12:08:04;21.40;46.00
73360;DHT22;63092;43.582;19.528;2023-04-23T12:10:30;21.40;45.00
73360;DHT22;63092;43.582;19.528;2023-04-23T12:12:57;21.20;45.60
73360;DHT22;63092;43.582;19.528;2023-04-23T12:15:23;21.20;46.40
73360;DHT22;63092;43.582;19.528;2023-04-23T12:17:50;21.30;46.60
73360;DHT22;63092;43.582;19.528;2023-04-23T12:20:20;21.50;45.90
73360;DHT22;63092;43.582;19.528;2023-04-23T12:22:47;21.40;47.40
73360;DHT22;63092;43.582;19.528;2023-04-23T12:25:13;21.40;45.30
73360;DHT22;63092;43.582;19.528;2023-04-23T12:27:40;21.30;44.00
73360;DHT22;63092;43.582;19.528;2023-04-23T12:30:08;21.40;44.60
73360;DHT22;63092;43.582;19.528;2023-04-23T12:32:34;21.40;44.40
73360;DHT22;63092;43.582;19.528;2023-04-23T12:35:00;21.80;45.80
73360;DHT22;63092;43.582;19.528;2023-04-23T12:39:53;22.40;42.50
73360;DHT22;63092;43.582;19.528;2023-04-23T12:42:21;22.60;43.40
73360;DHT22;63092;43.582;19.528;2023-04-23T12:47:15;22.90;41.80
73360;DHT22;63092;43.582;19.528;2023-04-23T12:49:44;23.00;41.60
73360;DHT22;63092;43.582;19.528;2023-04-23T12:52:10;23.10;41.10
73360;DHT22;63092;43.582;19.528;2023-04-23T12:54:38;23.20;42.70
73360;DHT22;63092;43.582;19.528;2023-04-23T12:57:05;23.20;42.20
73360;DHT22;63092;43.582;19.528;2023-04-23T12:59:32;23.20;42.20
73360;DHT22;63092;43.582;19.528;2023-04-23T13:01:59;23.30;42.50
73360;DHT22;63092;43.582;19.528;2023-04-23T13:04:28;23.10;43.00
73360;DHT22;63092;43.582;19.528;2023-04-23T13:06:54;22.90;43.20
73360;DHT22;63092;43.582;19.528;2023-04-23T13:09:20;22.80;43.20
73360;DHT22;63092;43.582;19.528;2023-04-23T13:11:49;22.70;44.00
73360;DHT22;63092;43.582;19.528;2023-04-23T13:14:16;22.70;44.30
73360;DHT22;63092;43.582;19.528;2023-04-23T13:19:09;22.70;44.10
73360;DHT22;63092;43.582;19.528;2023-04-23T13:21:37;22.60;45.40
73360;DHT22;63092;43.582;19.528;2023-04-23T13:24:03;22.50;45.60
73360;DHT22;63092;43.582;19.528;2023-04-23T13:26:29;22.60;45.80
73360;DHT22;63092;43.582;19.528;2023-04-23T13:29:00;22.80;45.50
73360;DHT22;63092;43.582;19.528;2023-04-23T13:31:27;23.10;44.70
73360;DHT22;63092;43.582;19.528;2023-04-23T13:33:53;23.20;43.30
73360;DHT22;63092;43.582;19.528;2023-04-23T13:38:47;23.60;56.80
73360;DHT22;63092;43.582;19.528;2023-04-23T13:41:13;23.70;42.70
73360;DHT22;63092;43.582;19.528;2023-04-23T13:43:38;23.80;42.30
73360;DHT22;63092;43.582;19.528;2023-04-23T13:46:05;23.80;41.70
73360;DHT22;63092;43.582;19.528;2023-04-23T13:50:57;24.00;42.10
73360;DHT22;63092;43.582;19.528;2023-04-23T13:53:24;23.90;42.60
73360;DHT22;63092;43.582;19.528;2023-04-23T13:55:50;23.90;42.10
73360;DHT22;63092;43.582;19.528;2023-04-23T13:58:16;23.90;42.50
73360;DHT22;63092;43.582;19.528;2023-04-23T14:00:42;23.90;42.30
73360;DHT22;63092;43.582;19.528;2023-04-23T14:03:08;24.00;42.50
73360;DHT22;63092;43.582;19.528;2023-04-23T14:05:35;24.00;42.60
73360;DHT22;63092;43.582;19.528;2023-04-23T14:10:27;24.10;43.90
73360;DHT22;63092;43.582;19.528;2023-04-23T14:12:53;23.90;43.60
73360;DHT22;63092;43.582;19.528;2023-04-23T14:15:20;24.00;43.80
73360;DHT22;63092;43.582;19.528;2023-04-23T14:17:46;24.00;43.20
73360;DHT22;63092;43.582;19.528;2023-04-23T14:20:13;23.80;43.80
73360;DHT22;63092;43.582;19.528;2023-04-23T14:22:48;23.50;43.90
73360;DHT22;63092;43.582;19.528;2023-04-23T14:25:15;23.20;44.40
73360;DHT22;63092;43.582;19.528;2023-04-23T14:27:49;23.10;44.40
73360;DHT22;63092;43.582;19.528;2023-04-23T14:30:18;22.80;44.50
73360;DHT22;63092;43.582;19.528;2023-04-23T14:32:44;22.70;45.60
73360;DHT22;63092;43.582;19.528;2023-04-23T14:35:14;22.70;44.90
73360;DHT22;63092;43.582;19.528;2023-04-23T14:37:41;22.80;45.70
73360;DHT22;63092;43.582;19.528;2023-04-23T14:40:12;22.60;45.80
73360;DHT22;63092;43.582;19.528;2023-04-23T14:42:47;22.50;45.60
73360;DHT22;63092;43.582;19.528;2023-04-23T14:45:15;22.40;45.60
73360;DHT22;63092;43.582;19.528;2023-04-23T14:47:43;22.30;46.50
73360;DHT22;63092;43.582;19.528;2023-04-23T14:50:13;22.30;46.10
73360;DHT22;63092;43.582;19.528;2023-04-23T14:52:39;22.30;45.80
73360;DHT22;63092;43.582;19.528;2023-04-23T14:55:05;22.30;45.90
73360;DHT22;63092;43.582;19.528;2023-04-23T14:57:31;22.30;46.10
73360;DHT22;63092;43.582;19.528;2023-04-23T14:59:57;22.20;45.80
73360;DHT22;63092;43.582;19.528;2023-04-23T15:02:22;22.30;46.30
73360;DHT22;63092;43.582;19.528;2023-04-23T15:04:48;22.40;46.10
73360;DHT22;63092;43.582;19.528;2023-04-23T15:07:14;22.40;45.50
73360;DHT22;63092;43.582;19.528;2023-04-23T15:09:40;22.50;45.60
73360;DHT22;63092;43.582;19.528;2023-04-23T15:15:03;22.70;46.10
73360;DHT22;63092;43.582;19.528;2023-04-23T15:17:30;22.80;46.20
73360;DHT22;63092;43.582;19.528;2023-04-23T15:19:56;22.70;46.00
73360;DHT22;63092;43.582;19.528;2023-04-23T15:22:25;22.70;46.80
73360;DHT22;63092;43.582;19.528;2023-04-23T15:24:50;22.70;46.40
73360;DHT22;63092;43.582;19.528;2023-04-23T15:27:16;22.80;46.70
73360;DHT22;63092;43.582;19.528;2023-04-23T15:29:42;22.90;46.70
73360;DHT22;63092;43.582;19.528;2023-04-23T15:32:08;22.80;46.10
73360;DHT22;63092;43.582;19.528;2023-04-23T15:34:34;22.70;46.00
73360;DHT22;63092;43.582;19.528;2023-04-23T15:37:00;22.40;45.70
73360;DHT22;63092;43.582;19.528;2023-04-23T15:39:26;22.60;45.40
73360;DHT22;63092;43.582;19.528;2023-04-23T15:41:51;22.70;45.80
73360;DHT22;63092;43.582;19.528;2023-04-23T15:44:18;22.60;45.90
73360;DHT22;63092;43.582;19.528;2023-04-23T15:46:44;22.50;45.60